createdAt,value
2023-11-14T00:00:52.781Z,43.05
2023-11-14T00:03:39.054Z,34.83
2023-11-14T00:06:24.956Z,34.15
2023-11-14T00:09:10.665Z,50.45
2023-11-14T00:11:56.511Z,32.42
2023-11-14T00:14:46.391Z,33.28
2023-11-14T00:17:33.091Z,32.25
2023-11-14T00:20:18.662Z,27.13
2023-11-14T00:23:04.612Z,36.30
2023-11-14T00:25:49.992Z,39.38
2023-11-14T00:28:35.898Z,34.38
2023-11-14T00:31:21.417Z,30.65
2023-11-14T00:34:06.739Z,40.72
2023-11-14T00:36:52.469Z,34.90
2023-11-14T00:39:38.121Z,32.67
2023-11-14T00:42:25.221Z,35.10
2023-11-14T00:45:11.976Z,40.17
2023-11-14T00:47:57.457Z,31.63
2023-11-14T00:50:43.154Z,27.83
2023-11-14T00:53:28.577Z,33.08
2023-11-14T00:56:14.268Z,30.75
2023-11-14T00:58:59.988Z,30.52
2023-11-14T01:01:45.304Z,32.03
2023-11-14T01:04:30.985Z,42.17
2023-11-14T01:07:16.355Z,33.53
2023-11-14T01:10:02.380Z,32.00
2023-11-14T01:12:47.779Z,35.38
2023-11-14T01:15:33.340Z,21.83
2023-11-14T01:18:19.054Z,32.28
2023-11-14T01:21:05.068Z,31.95
2023-11-14T01:23:50.676Z,30.95
2023-11-14T01:26:36.838Z,28.13
2023-11-14T01:29:22.507Z,29.85
2023-11-14T01:32:08.288Z,33.05
2023-11-14T01:34:54.263Z,36.30
2023-11-14T01:37:39.730Z,35.72
2023-11-14T01:40:25.800Z,36.28
2023-11-14T01:43:11.572Z,34.65
2023-11-14T01:45:57.007Z,36.80
2023-11-14T01:48:52.607Z,34.38
2023-11-14T01:51:38.443Z,32.85
2023-11-14T01:54:24.619Z,33.67
2023-11-14T01:57:12.292Z,39.38
2023-11-14T01:59:57.765Z,36.58
2023-11-14T02:02:43.455Z,28.92
2023-11-14T02:05:31.132Z,41.70
2023-11-14T02:08:17.732Z,30.83
2023-11-14T02:11:03.441Z,31.95
2023-11-14T02:13:49.823Z,29.25
2023-11-14T02:16:51.399Z,37.90
2023-11-14T02:19:37.389Z,39.72
2023-11-14T02:22:23.744Z,36.53
2023-11-14T02:25:09.325Z,38.08
2023-11-14T02:27:55.457Z,34.67
2023-11-14T02:30:42.334Z,37.78
2023-11-14T02:33:28.223Z,30.65
2023-11-14T02:36:13.851Z,31.83
2023-11-14T02:38:59.707Z,35.03
2023-11-14T02:41:45.011Z,37.67
2023-11-14T02:44:30.681Z,40.78
2023-11-14T02:47:18.245Z,30.90
2023-11-14T02:50:32.098Z,30.48
2023-11-14T02:53:18.806Z,35.25
2023-11-14T02:56:05.796Z,40.38
2023-11-14T02:58:51.631Z,44.35
2023-11-14T03:01:38.445Z,34.05
2023-11-14T03:04:25.734Z,38.08
2023-11-14T03:07:11.029Z,35.67
2023-11-14T03:09:56.462Z,41.33
2023-11-14T03:12:42.142Z,42.63
2023-11-14T03:15:27.869Z,40.97
2023-11-14T03:18:13.143Z,35.90
2023-11-14T03:20:58.656Z,32.58
2023-11-14T03:23:44.403Z,37.80
2023-11-14T03:26:33.460Z,34.83
2023-11-14T03:29:18.903Z,33.17
2023-11-14T03:32:04.600Z,40.72
2023-11-14T03:34:50.612Z,35.22
2023-11-14T03:37:36.074Z,42.70
2023-11-14T03:40:21.358Z,33.95
2023-11-14T03:43:07.200Z,32.88
2023-11-14T03:45:52.714Z,34.50
2023-11-14T03:48:38.261Z,41.42
2023-11-14T03:51:23.905Z,35.55
2023-11-14T03:54:09.485Z,30.25
2023-11-14T03:56:55.035Z,30.90
2023-11-14T03:59:40.739Z,29.55
2023-11-14T04:02:27.776Z,31.52
2023-11-14T04:05:13.418Z,30.75
2023-11-14T04:07:59.267Z,36.97
2023-11-14T04:10:44.917Z,30.42
2023-11-14T04:13:30.427Z,36.85
2023-11-14T04:16:16.621Z,39.53
2023-11-14T04:19:02.172Z,43.67
2023-11-14T04:21:47.918Z,30.23
2023-11-14T04:24:33.445Z,34.03
2023-11-14T04:27:18.764Z,35.55
2023-11-14T04:30:04.529Z,31.23
2023-11-14T04:32:50.137Z,35.22
2023-11-14T04:35:35.368Z,31.45
2023-11-14T04:38:21.519Z,32.25
2023-11-14T04:41:06.962Z,32.50
2023-11-14T04:43:52.554Z,34.45
2023-11-14T04:46:38.272Z,30.70
2023-11-14T04:49:23.762Z,25.05
2023-11-14T04:52:09.409Z,33.13
2023-11-14T04:54:54.925Z,35.65
2023-11-14T04:57:40.679Z,31.85
2023-11-14T05:00:26.041Z,35.58
2023-11-14T05:03:11.572Z,30.98
2023-11-14T05:05:57.019Z,27.42
2023-11-14T05:08:42.601Z,26.58
2023-11-14T05:11:28.260Z,31.80
2023-11-14T05:14:13.729Z,29.55
2023-11-14T05:16:59.290Z,31.67
2023-11-14T05:19:48.525Z,37.92
2023-11-14T05:22:35.116Z,42.83
2023-11-14T05:25:20.650Z,39.55
2023-11-14T05:28:06.792Z,32.70
2023-11-14T05:30:52.386Z,39.33
2023-11-14T05:33:38.046Z,34.75
2023-11-14T05:36:23.369Z,26.85
2023-11-14T05:39:08.891Z,35.70
2023-11-14T05:41:54.587Z,30.95
2023-11-14T05:44:40.248Z,34.70
2023-11-14T05:47:25.828Z,42.35
2023-11-14T05:50:11.331Z,35.72
2023-11-14T05:52:56.570Z,34.60
2023-11-14T05:55:42.149Z,37.08
2023-11-14T05:58:27.827Z,31.98
2023-11-14T06:01:13.423Z,35.17
2023-11-14T06:03:58.946Z,28.85
2023-11-14T06:06:44.431Z,31.65
2023-11-14T06:09:30.307Z,44.55
2023-11-14T06:12:15.965Z,35.25
2023-11-14T06:15:01.492Z,37.25
2023-11-14T06:17:47.169Z,30.83
2023-11-14T06:20:35.941Z,41.17
2023-11-14T06:23:22.140Z,43.60
2023-11-14T06:26:08.136Z,48.58
2023-11-14T06:28:53.599Z,36.17
2023-11-14T06:31:42.021Z,35.42
2023-11-14T06:34:27.892Z,30.35
2023-11-14T06:37:13.497Z,40.75
2023-11-14T06:39:59.105Z,31.80
2023-11-14T06:42:45.380Z,30.60
2023-11-14T06:45:31.616Z,26.77
2023-11-14T06:48:17.624Z,37.55
2023-11-14T06:51:03.344Z,48.55
2023-11-14T06:53:49.309Z,39.95
2023-11-14T06:56:35.698Z,33.17
2023-11-14T06:59:22.267Z,33.58
2023-11-14T07:02:09.796Z,34.10
2023-11-14T07:04:56.010Z,39.58
2023-11-14T07:07:41.650Z,33.78
2023-11-14T07:10:27.695Z,32.60
2023-11-14T07:13:13.565Z,33.60
2023-11-14T07:15:58.936Z,41.90
2023-11-14T07:18:44.585Z,31.42
2023-11-14T07:21:34.249Z,40.90
2023-11-14T07:24:19.981Z,30.42
2023-11-14T07:27:07.966Z,43.13
2023-11-14T07:29:53.348Z,48.85
2023-11-14T07:32:38.872Z,40.42
2023-11-14T07:35:24.737Z,30.58
2023-11-14T07:38:10.212Z,40.60
2023-11-14T07:40:56.031Z,32.88
2023-11-14T07:43:42.867Z,33.05
2023-11-14T07:46:29.723Z,47.05
2023-11-14T07:49:15.589Z,38.67
2023-11-14T07:52:01.342Z,33.80
2023-11-14T07:54:48.219Z,36.05
2023-11-14T07:57:34.395Z,35.45
2023-11-14T08:00:22.138Z,47.88
2023-11-14T08:03:07.784Z,37.85
2023-11-14T08:05:53.467Z,33.60
2023-11-14T08:08:39.387Z,39.92
2023-11-14T08:11:24.918Z,45.08
2023-11-14T08:14:10.632Z,34.33
2023-11-14T08:16:56.099Z,41.10
2023-11-14T08:19:41.762Z,40.42
2023-11-14T08:22:27.339Z,44.10
2023-11-14T08:25:13.029Z,29.05
2023-11-14T08:27:59.242Z,43.75
2023-11-14T08:30:44.654Z,34.88
2023-11-14T08:33:30.226Z,35.28
2023-11-14T08:36:16.084Z,42.38
2023-11-14T08:39:01.587Z,27.35
2023-11-14T08:41:47.344Z,38.15
2023-11-14T08:44:32.649Z,29.45
2023-11-14T08:47:18.974Z,44.38
2023-11-14T08:50:06.092Z,35.17
2023-11-14T08:52:51.799Z,34.58
2023-11-14T08:55:37.135Z,42.28
2023-11-14T08:58:22.492Z,36.10
2023-11-14T09:01:08.306Z,39.70
2023-11-14T09:03:54.223Z,34.47
2023-11-14T09:06:39.873Z,40.67
2023-11-14T09:09:25.452Z,35.42
2023-11-14T09:12:11.311Z,45.78
2023-11-14T09:14:57.441Z,34.72
2023-11-14T09:17:46.665Z,39.80
2023-11-14T09:20:35.775Z,35.80
2023-11-14T09:23:21.333Z,34.05
2023-11-14T09:26:08.547Z,30.17
2023-11-14T09:28:54.324Z,31.60
2023-11-14T09:31:39.897Z,38.53
2023-11-14T09:34:25.543Z,37.33
2023-11-14T09:37:11.084Z,41.53
2023-11-14T09:39:56.531Z,32.72
2023-11-14T09:42:42.181Z,36.72
2023-11-14T09:45:28.752Z,40.15
2023-11-14T09:48:14.210Z,32.42
2023-11-14T09:51:01.874Z,34.58
2023-11-14T09:53:48.950Z,41.33
2023-11-14T09:56:35.227Z,32.97
2023-11-14T09:59:21.273Z,37.13
2023-11-14T10:02:07.133Z,39.58
2023-11-14T10:04:56.568Z,33.83
2023-11-14T10:07:47.344Z,31.45
2023-11-14T10:10:33.310Z,38.05
2023-11-14T10:13:21.060Z,38.58
2023-11-14T10:16:20.557Z,26.67
2023-11-14T10:19:15.355Z,29.88
2023-11-14T10:22:05.582Z,35.65
2023-11-14T10:24:52.300Z,41.03
2023-11-14T10:27:38.246Z,42.95
2023-11-14T10:30:23.618Z,43.40
2023-11-14T10:33:12.133Z,43.88
2023-11-14T10:36:02.224Z,40.05
2023-11-14T10:39:04.860Z,39.90
2023-11-14T10:41:51.962Z,37.55
2023-11-14T10:44:37.734Z,38.30
2023-11-14T10:47:40.781Z,39.97
2023-11-14T10:50:28.437Z,35.35
2023-11-14T10:53:14.768Z,36.85
2023-11-14T10:56:03.981Z,43.25
2023-11-14T10:58:51.519Z,45.08
2023-11-14T11:01:47.579Z,44.70
2023-11-14T11:04:35.230Z,38.92
2023-11-14T11:07:20.640Z,43.47
2023-11-14T11:10:07.890Z,48.20
2023-11-14T11:12:53.773Z,39.28
2023-11-14T11:15:49.632Z,43.88
2023-11-14T11:18:36.981Z,46.00
2023-11-14T11:21:22.779Z,33.47
2023-11-14T11:24:13.584Z,44.80
2023-11-14T11:27:16.291Z,50.58
2023-11-14T11:30:02.112Z,37.70
2023-11-14T11:32:51.651Z,38.00
2023-11-14T11:35:37.568Z,42.55
2023-11-14T11:38:27.705Z,40.83
2023-11-14T11:41:15.998Z,45.60
2023-11-14T11:44:11.162Z,37.38
2023-11-14T11:46:57.514Z,34.67
2023-11-14T11:49:43.747Z,36.67
2023-11-14T11:52:30.126Z,31.85
2023-11-14T11:55:16.606Z,29.92
2023-11-14T11:58:09.085Z,27.00
2023-11-14T12:01:08.288Z,31.88
2023-11-14T12:03:57.923Z,22.20
2023-11-14T12:06:47.395Z,20.83
2023-11-14T12:09:32.851Z,21.88
2023-11-14T12:12:18.253Z,21.02
2023-11-14T12:15:06.300Z,20.45
2023-11-14T12:17:56.609Z,13.25
2023-11-14T12:20:42.508Z,19.70
2023-11-14T12:23:27.802Z,15.60
2023-11-14T12:26:15.494Z,29.08
2023-11-14T12:29:08.406Z,22.73
2023-11-14T12:31:54.568Z,18.75
2023-11-14T12:34:40.075Z,19.50
2023-11-14T12:37:25.866Z,21.50
2023-11-14T12:40:12.509Z,13.23
2023-11-14T12:42:58.381Z,5.13
2023-11-14T12:45:48.443Z,4.70
2023-11-14T12:48:34.710Z,3.20
2023-11-14T12:51:24.870Z,3.60
2023-11-14T12:54:11.823Z,4.03
2023-11-14T12:56:57.345Z,5.93
2023-11-14T12:59:46.141Z,5.30
2023-11-14T13:02:32.372Z,2.85
2023-11-14T13:05:19.445Z,5.03
2023-11-14T13:08:05.248Z,12.00
2023-11-14T13:10:50.431Z,6.75
2023-11-14T13:13:35.918Z,9.57
2023-11-14T13:16:22.473Z,10.38
2023-11-14T13:19:08.150Z,10.20
2023-11-14T13:21:53.713Z,6.35
2023-11-14T13:24:39.309Z,6.72
2023-11-14T13:27:24.977Z,5.82
2023-11-14T13:30:11.041Z,6.45
2023-11-14T13:32:57.070Z,5.60
2023-11-14T13:35:42.862Z,9.48
2023-11-14T13:38:28.505Z,5.70
2023-11-14T13:41:16.614Z,8.18
2023-11-14T13:44:02.894Z,3.63
2023-11-14T13:46:48.464Z,8.45
2023-11-14T13:49:34.398Z,5.35
2023-11-14T13:52:20.761Z,8.57
2023-11-14T13:55:07.124Z,4.90
2023-11-14T13:57:53.217Z,10.10
2023-11-14T14:00:40.626Z,4.22
2023-11-14T14:03:27.694Z,7.00
2023-11-14T14:06:14.372Z,7.25
2023-11-14T14:09:00.043Z,9.75
2023-11-14T14:11:45.693Z,6.43
2023-11-14T14:14:33.356Z,6.35
2023-11-14T14:17:19.015Z,5.00
2023-11-14T14:20:09.269Z,7.53
2023-11-14T14:22:56.619Z,4.25
2023-11-14T14:25:42.274Z,12.55
2023-11-14T14:28:34.917Z,5.88
2023-11-14T14:31:22.103Z,4.35
2023-11-14T14:34:09.476Z,7.20
2023-11-14T14:39:49.552Z,8.15
2023-11-14T14:42:42.059Z,6.22
2023-11-14T14:45:28.407Z,5.50
2023-11-14T14:48:14.596Z,3.75
2023-11-14T14:51:00.271Z,4.38
2023-11-14T14:53:47.814Z,3.55
2023-11-14T14:56:33.441Z,4.15
2023-11-14T14:59:19.262Z,6.25
2023-11-14T15:02:06.339Z,3.50
2023-11-14T15:04:52.090Z,5.43
2023-11-14T15:07:37.767Z,5.70
2023-11-14T15:10:23.148Z,4.57
2023-11-14T15:13:10.919Z,4.18
2023-11-14T15:15:56.663Z,8.13
2023-11-14T15:18:42.428Z,6.40
2023-11-14T15:21:27.779Z,5.13
2023-11-14T15:24:13.653Z,5.80
2023-11-14T15:26:59.140Z,3.42
2023-11-14T15:29:45.072Z,8.25
2023-11-14T15:32:32.043Z,6.40
2023-11-14T15:35:17.758Z,4.78
2023-11-14T15:38:03.251Z,4.68
2023-11-14T15:40:48.875Z,7.32
2023-11-14T15:43:34.410Z,9.23
2023-11-14T15:46:25.429Z,8.60
2023-11-14T15:49:11.693Z,8.02
2023-11-14T15:51:58.044Z,9.32
2023-11-14T15:54:43.643Z,8.70
2023-11-14T15:57:29.043Z,12.00
2023-11-14T16:01:00.315Z,11.35
2023-11-14T16:03:45.632Z,9.10
2023-11-14T16:06:31.380Z,10.25
2023-11-14T16:09:16.717Z,10.25
2023-11-14T16:12:03.485Z,10.73
2023-11-14T16:14:50.031Z,8.82
2023-11-14T16:17:36.706Z,11.88
2023-11-14T16:20:22.807Z,7.88
2023-11-14T16:23:08.340Z,15.23
2023-11-14T16:25:53.654Z,6.93
2023-11-14T16:28:39.237Z,19.40
2023-11-14T16:31:25.030Z,13.60
2023-11-14T16:34:11.195Z,13.00
2023-11-14T16:36:56.598Z,13.95
2023-11-14T16:39:42.452Z,14.20
2023-11-14T16:42:28.359Z,8.77
2023-11-14T16:45:13.932Z,11.68
2023-11-14T16:47:59.666Z,10.73
2023-11-14T16:50:45.073Z,15.23
2023-11-14T16:53:30.568Z,15.02
2023-11-14T16:56:16.778Z,20.98
2023-11-14T16:59:03.716Z,11.98
2023-11-14T17:01:50.403Z,16.85
2023-11-14T17:04:39.156Z,16.33
2023-11-14T17:07:25.529Z,16.90
2023-11-14T17:10:11.560Z,21.20
2023-11-14T17:12:57.293Z,15.90
2023-11-14T17:15:43.018Z,14.85
2023-11-14T17:18:29.171Z,10.98
2023-11-14T17:21:15.695Z,20.55
2023-11-14T17:24:01.441Z,15.30
2023-11-14T17:26:49.247Z,12.77
2023-11-14T17:29:35.009Z,16.88
2023-11-14T17:32:20.588Z,17.33
2023-11-14T17:35:09.680Z,18.42
2023-11-14T17:37:56.575Z,13.75
2023-11-14T17:40:42.232Z,23.58
2023-11-14T17:43:27.578Z,18.10
2023-11-14T17:46:13.144Z,23.00
2023-11-14T17:48:58.948Z,18.67
2023-11-14T17:51:44.992Z,16.63
2023-11-14T17:54:30.340Z,21.52
2023-11-14T17:57:17.307Z,18.77
2023-11-14T18:00:02.799Z,20.95
2023-11-14T18:02:48.909Z,20.25
2023-11-14T18:05:36.478Z,17.50
2023-11-14T18:08:21.951Z,14.63
2023-11-14T18:11:07.579Z,18.05
2023-11-14T18:13:55.230Z,26.13
2023-11-14T18:16:42.146Z,20.88
2023-11-14T18:19:27.676Z,23.88
2023-11-14T18:22:12.890Z,19.70
2023-11-14T18:24:58.421Z,16.92
2023-11-14T18:27:49.397Z,23.20
2023-11-14T18:30:41.209Z,18.50
2023-11-14T18:33:30.600Z,14.30
2023-11-14T18:36:19.882Z,22.05
2023-11-14T18:39:11.855Z,16.60
2023-11-14T18:42:00.980Z,20.98
2023-11-14T18:45:00.949Z,23.63
2023-11-14T18:50:48.197Z,20.20
2023-11-14T18:53:35.619Z,28.00
2023-11-14T18:56:24.078Z,21.25
2023-11-14T18:59:09.635Z,25.27
2023-11-14T19:02:03.036Z,24.52
2023-11-14T19:04:55.891Z,16.48
2023-11-14T19:07:54.943Z,24.35
2023-11-14T19:10:40.593Z,19.80
2023-11-14T19:13:32.591Z,21.02
2023-11-14T19:19:08.115Z,14.68
2023-11-14T19:21:54.098Z,19.30
2023-11-14T19:24:42.742Z,21.48
2023-11-14T19:27:33.222Z,21.83
2023-11-14T19:30:20.322Z,21.30
2023-11-14T19:33:06.131Z,21.60
2023-11-14T19:35:52.455Z,23.58
2023-11-14T19:38:38.291Z,23.65
2023-11-14T19:41:24.029Z,31.20
2023-11-14T19:44:09.436Z,18.23
2023-11-14T19:46:56.027Z,18.67
2023-11-14T19:49:45.420Z,22.65
2023-11-14T19:52:31.461Z,25.15
2023-11-14T19:55:16.931Z,25.27
2023-11-14T19:58:02.644Z,27.58
2023-11-14T20:00:48.141Z,27.13
2023-11-14T20:03:33.864Z,23.05
2023-11-14T20:06:19.301Z,23.77
2023-11-14T20:09:04.828Z,17.80
2023-11-14T20:11:50.536Z,22.70
2023-11-14T20:14:37.129Z,28.95
2023-11-14T20:17:22.975Z,24.10
2023-11-14T20:20:12.515Z,35.50
2023-11-14T20:22:58.213Z,26.13
2023-11-14T20:25:43.885Z,20.75
2023-11-14T20:28:31.340Z,24.92
2023-11-14T20:31:16.691Z,22.35
2023-11-14T20:34:02.419Z,26.30
2023-11-14T20:36:48.059Z,33.47
2023-11-14T20:39:35.778Z,24.63
2023-11-14T20:42:21.957Z,16.52
2023-11-14T20:45:08.583Z,21.83
2023-11-14T20:47:54.428Z,29.13
2023-11-14T20:50:40.050Z,28.58
2023-11-14T20:53:26.265Z,24.83
2023-11-14T20:56:11.602Z,20.13
2023-11-14T20:58:57.538Z,23.08
2023-11-14T21:01:43.073Z,21.85
2023-11-14T21:04:28.649Z,25.42
2023-11-14T21:07:14.514Z,19.25
2023-11-14T21:10:00.569Z,26.65
2023-11-14T21:12:47.430Z,21.67
2023-11-14T21:15:33.227Z,29.33
2023-11-14T21:18:18.691Z,30.25
2023-11-14T21:21:08.487Z,20.90
2023-11-14T21:23:53.867Z,26.02
2023-11-14T21:26:42.567Z,20.88
2023-11-14T21:29:28.311Z,19.80
2023-11-14T21:32:13.752Z,21.27
2023-11-14T21:34:59.152Z,28.38
2023-11-14T21:37:44.882Z,20.45
2023-11-14T21:40:30.108Z,18.42
2023-11-14T21:43:15.810Z,19.17
2023-11-14T21:46:01.228Z,22.05
2023-11-14T21:48:46.852Z,24.15
2023-11-14T21:51:32.872Z,23.25
2023-11-14T21:54:18.166Z,25.00
2023-11-14T21:57:04.441Z,21.50
2023-11-14T21:59:51.683Z,19.67
2023-11-14T22:02:37.398Z,19.15
2023-11-14T22:05:25.599Z,19.70
2023-11-14T22:08:11.353Z,13.85
2023-11-14T22:10:56.807Z,21.88
2023-11-14T22:13:42.459Z,24.83
2023-11-14T22:16:28.946Z,21.13
2023-11-14T22:19:14.409Z,17.35
2023-11-14T22:22:00.985Z,21.92
2023-11-14T22:24:47.734Z,21.25
2023-11-14T22:27:33.431Z,22.15
2023-11-14T22:30:19.099Z,27.42
2023-11-14T22:33:04.858Z,21.65
2023-11-14T22:35:50.641Z,16.52
2023-11-14T22:38:36.335Z,13.98
2023-11-14T22:41:22.500Z,24.10
2023-11-14T22:44:08.157Z,21.00
2023-11-14T22:46:53.559Z,22.63
2023-11-14T22:49:39.448Z,18.77
2023-11-14T22:52:25.048Z,15.25
2023-11-14T22:55:12.080Z,22.60
2023-11-14T22:57:58.103Z,16.63
2023-11-14T23:00:43.718Z,19.42
2023-11-14T23:03:34.101Z,19.95
2023-11-14T23:06:21.608Z,12.57
2023-11-14T23:09:16.706Z,20.92
2023-11-14T23:12:06.046Z,18.42
2023-11-14T23:14:51.500Z,18.90
2023-11-14T23:17:37.161Z,17.50
2023-11-14T23:20:22.669Z,22.30
2023-11-14T23:23:08.804Z,24.80
2023-11-14T23:25:54.630Z,18.05
2023-11-14T23:28:40.070Z,19.25
2023-11-14T23:31:26.097Z,22.90
2023-11-14T23:34:11.650Z,24.75
2023-11-14T23:36:57.074Z,18.85
2023-11-14T23:39:43.828Z,24.20
2023-11-14T23:42:29.599Z,21.98
2023-11-14T23:45:17.796Z,25.27
2023-11-14T23:48:03.315Z,15.65
2023-11-14T23:50:48.810Z,18.75
2023-11-14T23:53:35.309Z,17.23
2023-11-14T23:56:20.896Z,20.30
2023-11-14T23:59:06.937Z,21.10
